Neptune Antlia — S6BE — position and weather

sailwx.info

Track history (hours):
 
Tides and Currents Weather Stations Pressure Air Temp Water Temp Dewpoint Dewpoint Depression Visibility Wind Speed Wind Dir Waves Ship Positions

Neptune Antlia

Last reported at 2016-Jun-19 04:33 UTC. Time now 2016-Jul-01 08:16 UTC.
Position N 01°56' E 102°17'.
Warning: this ship's position is 12 days out of date.

Type: Cargo ship. MMSI: 563737000.

Date/timePositionNaut miles runAvg speedWind from/ knotsBaromVisibWave heightAir tempDewpointWater temp
2016-Jun-19 04:33N 01°56' E 102°17'1313.3
2016-Jun-19 03:33N 01°50' E 102°29'1512.6
2016-Jun-19 02:25N 01°45' E 102°43'5812.0
2016-Jun-18 21:32N 01°13' E 103°32'1212.1
2016-Jun-18 20:33N 01°09' E 103°43'10 9.8
2016-Jun-18 19:33N 01°12' E 103°52'7 6.6
2016-Jun-18 18:33N 01°17' E 103°57'0 0.2
2016-Jun-18 17:33N 01°17' E 103°57'0 0.1
2016-Jun-18 16:32N 01°17' E 103°57'0 0.1
2016-Jun-18 14:17N 01°17' E 103°57'0 0.2
2016-Jun-18 13:32N 01°17' E 103°57'0 0.0
2016-Jun-18 12:32N 01°17' E 103°57'0 0.0
2016-Jun-18 11:23N 01°17' E 103°57'0 0.0
2016-Jun-18 10:23N 01°17' E 103°57'0 0.0
2016-Jun-18 09:32N 01°17' E 103°57'0 0.0
2016-Jun-18 08:32N 01°17' E 103°57'0 0.0
2016-Jun-18 07:29N 01°17' E 103°57'0 0.1
2016-Jun-18 06:26N 01°17' E 103°57'0 0.1
2016-Jun-18 04:29N 01°17' E 103°57'3 2.7
2016-Jun-18 03:33N 01°16' E 103°59'6 6.0
2016-Jun-18 02:32N 01°16' E 104°05'  
2016-Jun-12 16:20N 23°45' E 118°24'487 9.8
2016-Jun-10 14:30N 31°17' E 121°50'1212.7
2016-Jun-10 13:33N 31°22' E 121°38'1010.2
2016-Jun-10 12:33N 31°28' E 121°28'1212.0
2016-Jun-10 11:33N 31°36' E 121°17'1313.1
2016-Jun-10 10:33N 31°44' E 121°06'1211.2
2016-Jun-10 09:26N 31°51' E 120°54'1211.7
2016-Jun-10 08:25N 32°00' E 120°45'1312.6
2016-Jun-10 07:23N 32°02' E 120°29'1413.8
2016-Jun-10 06:23N 31°56' E 120°15'1211.6
2016-Jun-10 05:22N 31°58' E 120°01'  
Track history (hours):
 
Tides and Currents Weather Stations Pressure Air Temp Water Temp Dewpoint Dewpoint Depression Visibility Wind Speed Wind Dir Waves Ship Positions

Neptune Antlia

Last reported at 2016-Jun-19 04:33 UTC. Time now 2016-Jul-01 08:16 UTC.
Position N 01°56' E 102°17'.
Warning: this ship's position is 12 days out of date.

Type: Cargo ship. MMSI: 563737000.

Date/timePositionNaut miles runAvg speedWind from/ knotsBaromVisibWave heightAir tempDewpointWater temp
2016-Jun-19 04:33N 01°56' E 102°17'1313.3
2016-Jun-19 03:33N 01°50' E 102°29'1512.6
2016-Jun-19 02:25N 01°45' E 102°43'5812.0
2016-Jun-18 21:32N 01°13' E 103°32'1212.1
2016-Jun-18 20:33N 01°09' E 103°43'10 9.8
2016-Jun-18 19:33N 01°12' E 103°52'7 6.6
2016-Jun-18 18:33N 01°17' E 103°57'0 0.2
2016-Jun-18 17:33N 01°17' E 103°57'0 0.1
2016-Jun-18 16:32N 01°17' E 103°57'0 0.1
2016-Jun-18 14:17N 01°17' E 103°57'0 0.2
2016-Jun-18 13:32N 01°17' E 103°57'0 0.0
2016-Jun-18 12:32N 01°17' E 103°57'0 0.0
2016-Jun-18 11:23N 01°17' E 103°57'0 0.0
2016-Jun-18 10:23N 01°17' E 103°57'0 0.0
2016-Jun-18 09:32N 01°17' E 103°57'0 0.0
2016-Jun-18 08:32N 01°17' E 103°57'0 0.0
2016-Jun-18 07:29N 01°17' E 103°57'0 0.1
2016-Jun-18 06:26N 01°17' E 103°57'0 0.1
2016-Jun-18 04:29N 01°17' E 103°57'3 2.7
2016-Jun-18 03:33N 01°16' E 103°59'6 6.0
2016-Jun-18 02:32N 01°16' E 104°05'  
2016-Jun-12 16:20N 23°45' E 118°24'487 9.8
2016-Jun-10 14:30N 31°17' E 121°50'1212.7
2016-Jun-10 13:33N 31°22' E 121°38'1010.2
2016-Jun-10 12:33N 31°28' E 121°28'1212.0
2016-Jun-10 11:33N 31°36' E 121°17'1313.1
2016-Jun-10 10:33N 31°44' E 121°06'1211.2
2016-Jun-10 09:26N 31°51' E 120°54'1211.7
2016-Jun-10 08:25N 32°00' E 120°45'1312.6
2016-Jun-10 07:23N 32°02' E 120°29'1413.8
2016-Jun-10 06:23N 31°56' E 120°15'1211.6
2016-Jun-10 05:22N 31°58' E 120°01'  

Dump ship's entire track history